createdAt,value
2023-02-24T07:21:05.247Z,2.45
2023-02-24T07:23:31.986Z,2.10
2023-02-24T07:25:58.606Z,2.47
2023-02-24T07:28:25.401Z,2.88
2023-02-24T07:30:54.977Z,2.85
2023-02-24T07:33:23.129Z,2.33
2023-02-24T07:35:51.144Z,2.35
2023-02-24T07:38:23.017Z,2.50
2023-02-24T07:40:50.040Z,2.40
2023-02-24T07:43:17.363Z,2.70
2023-02-24T07:45:44.515Z,2.20
2023-02-24T07:48:12.493Z,2.72
2023-02-24T07:50:42.046Z,2.28
2023-02-24T07:53:10.025Z,2.78
2023-02-24T07:55:37.089Z,2.90
2023-02-24T07:58:06.039Z,2.38
2023-02-24T08:00:49.844Z,2.40
2023-02-24T08:03:16.429Z,2.13
2023-02-24T08:05:43.766Z,2.38
2023-02-24T08:08:10.436Z,1.85
2023-02-24T08:10:37.366Z,2.63
2023-02-24T08:13:07.726Z,2.70
2023-02-24T08:15:34.685Z,2.55
2023-02-24T08:18:01.804Z,2.65
2023-02-24T08:20:36.232Z,2.58
2023-02-24T08:23:06.346Z,2.53
2023-02-24T08:25:36.286Z,2.33
2023-02-24T08:28:08.946Z,2.47
2023-02-24T08:30:39.209Z,2.70
2023-02-24T08:33:22.027Z,2.53
2023-02-24T08:35:58.024Z,2.20
2023-02-24T08:38:26.525Z,2.45
2023-02-24T08:40:55.610Z,2.55
2023-02-24T08:43:23.758Z,2.33
2023-02-24T08:45:53.496Z,2.95
2023-02-24T08:48:26.941Z,2.72
2023-02-24T08:50:57.258Z,2.80
2023-02-24T08:53:31.301Z,2.58
2023-02-24T08:55:59.980Z,2.90
2023-02-24T08:58:31.212Z,2.42
2023-02-24T09:00:59.447Z,2.70
2023-02-24T09:06:00.857Z,2.50
2023-02-24T09:08:32.745Z,2.70
2023-02-24T09:11:07.855Z,2.90
2023-02-24T09:13:36.447Z,3.55
2023-02-24T09:18:30.887Z,2.53
2023-02-24T09:21:16.926Z,2.85
2023-02-24T09:23:46.338Z,2.60
2023-02-24T09:26:15.962Z,3.63
2023-02-24T09:28:48.785Z,9.27
2023-02-24T09:31:19.093Z,3.28
2023-02-24T09:33:51.141Z,3.05
2023-02-24T09:36:28.328Z,3.17
2023-02-24T09:39:01.228Z,3.10
2023-02-24T09:41:56.563Z,3.55
2023-02-24T09:44:25.796Z,3.28
2023-02-24T09:46:58.204Z,3.17
2023-02-24T09:49:40.049Z,3.08
2023-02-24T09:52:18.462Z,3.28
2023-02-24T09:57:55.179Z,3.40
2023-02-24T10:00:25.549Z,4.00
2023-02-24T10:03:19.766Z,3.50
2023-02-24T10:06:00.415Z,4.18
2023-02-24T10:08:33.685Z,3.67
2023-02-24T10:11:09.193Z,3.65
2023-02-24T10:13:48.962Z,4.47
2023-02-24T10:16:24.026Z,4.35
2023-02-24T10:19:16.692Z,4.72
2023-02-24T10:21:49.588Z,3.65
2023-02-24T10:24:47.292Z,4.20
2023-02-24T10:27:53.058Z,4.50
2023-02-24T10:30:40.787Z,3.92
2023-02-24T10:33:31.699Z,4.45
2023-02-24T10:36:10.975Z,4.07
2023-02-24T10:38:46.582Z,4.28
2023-02-24T10:41:14.655Z,4.55
2023-02-24T10:43:47.871Z,4.90
2023-02-24T10:46:38.608Z,4.82
2023-02-24T10:49:11.841Z,5.78
2023-02-24T10:51:41.789Z,4.68
2023-02-24T10:54:42.519Z,5.25
2023-02-24T10:57:31.503Z,4.65
2023-02-24T11:00:18.587Z,4.80
2023-02-24T11:03:06.898Z,5.22
2023-02-24T11:05:56.610Z,5.85
2023-02-24T11:08:43.445Z,5.28
2023-02-24T11:11:20.505Z,5.65
2023-02-24T11:14:09.209Z,5.30
2023-02-24T11:17:02.598Z,6.18
2023-02-24T11:19:33.465Z,5.57
2023-02-24T11:22:00.512Z,6.82
2023-02-24T11:24:28.828Z,6.03
2023-02-24T11:26:55.455Z,6.25
2023-02-24T11:29:54.452Z,6.22
2023-02-24T11:32:30.339Z,6.70
2023-02-24T11:35:12.545Z,6.72
2023-02-24T11:37:43.346Z,7.70
2023-02-24T11:40:23.889Z,7.35
2023-02-24T11:42:57.054Z,7.00
2023-02-24T11:45:41.549Z,7.05
2023-02-24T11:48:32.178Z,6.95
2023-02-24T11:51:17.150Z,8.38
2023-02-24T11:53:51.526Z,7.35
2023-02-24T11:56:44.579Z,7.93
2023-02-24T11:59:17.782Z,7.05
2023-02-24T12:02:03.867Z,8.07
2023-02-24T12:04:39.809Z,8.23
2023-02-24T12:07:42.850Z,8.00
2023-02-24T12:10:32.091Z,7.18
2023-02-24T12:13:10.994Z,7.63
2023-02-24T12:16:11.974Z,7.25
2023-02-24T12:18:41.048Z,7.45
2023-02-24T12:21:31.642Z,8.00
2023-02-24T12:23:58.970Z,7.60
2023-02-24T12:26:54.679Z,7.57
2023-02-24T12:29:42.400Z,7.53
2023-02-24T12:32:33.255Z,6.78
2023-02-24T12:35:14.060Z,7.90
2023-02-24T12:38:03.699Z,7.28
2023-02-24T12:40:47.921Z,7.03
2023-02-24T12:43:35.623Z,6.63
2023-02-24T12:46:04.047Z,7.00
2023-02-24T12:51:26.231Z,6.07
2023-02-24T12:54:10.209Z,6.97
2023-02-24T12:56:49.246Z,6.65
2023-02-24T12:59:19.658Z,6.63
2023-02-24T13:01:51.545Z,6.75
2023-02-24T13:04:47.486Z,6.38
2023-02-24T13:07:41.430Z,5.70
2023-02-24T13:10:45.434Z,5.38
2023-02-24T13:13:31.780Z,5.15
2023-02-24T13:16:01.494Z,5.88
2023-02-24T13:18:33.476Z,5.22
2023-02-24T13:21:14.137Z,5.00
2023-02-24T13:23:42.703Z,4.90
2023-02-24T13:26:10.444Z,4.88
2023-02-24T13:28:38.530Z,4.85
2023-02-24T13:31:05.298Z,5.68
2023-02-24T13:33:38.385Z,4.97
2023-02-24T13:36:08.170Z,6.05
2023-02-24T13:38:46.126Z,5.07
2023-02-24T13:41:28.113Z,5.50
2023-02-24T13:44:22.232Z,5.25
2023-02-24T13:47:36.424Z,5.88
2023-02-24T13:50:20.791Z,5.80
2023-02-24T13:53:04.016Z,7.10
2023-02-24T13:55:58.688Z,6.53
2023-02-24T13:58:40.646Z,6.90
2023-02-24T14:01:14.054Z,6.47
2023-02-24T14:03:42.648Z,7.35
2023-02-24T14:08:59.802Z,6.95
2023-02-24T14:11:29.700Z,7.72
2023-02-24T14:13:57.160Z,6.93
2023-02-24T14:16:26.791Z,7.55
2023-02-24T14:18:58.859Z,7.22
2023-02-24T14:21:28.529Z,7.68
2023-02-24T14:24:10.989Z,7.75
2023-02-24T14:26:59.232Z,7.30
2023-02-24T14:29:31.973Z,7.78
2023-02-24T14:31:59.564Z,8.20
2023-02-24T14:34:28.984Z,7.70
2023-02-24T14:36:57.818Z,6.93
2023-02-24T14:39:26.922Z,7.38
2023-02-24T14:42:08.675Z,8.00
2023-02-24T14:44:50.574Z,7.72
2023-02-24T14:47:19.533Z,8.18
2023-02-24T14:50:02.254Z,7.82
2023-02-24T14:53:03.512Z,8.45
2023-02-24T14:55:33.174Z,7.07
2023-02-24T14:58:22.104Z,7.95
2023-02-24T15:01:05.789Z,8.95
2023-02-24T15:03:54.147Z,8.02
2023-02-24T15:06:29.498Z,8.25
2023-02-24T15:09:05.295Z,8.93
2023-02-24T15:11:32.996Z,9.23
2023-02-24T15:14:06.193Z,8.18
2023-02-24T15:16:41.670Z,8.57
2023-02-24T15:19:31.051Z,8.23
2023-02-24T15:21:57.933Z,7.90
2023-02-24T15:24:33.638Z,8.05
2023-02-24T15:27:20.944Z,8.02
2023-02-24T15:30:36.462Z,8.60
2023-02-24T15:33:05.372Z,8.38
2023-02-24T15:35:33.666Z,8.57
2023-02-24T15:38:01.237Z,8.05
2023-02-24T15:40:29.769Z,8.40
2023-02-24T15:45:28.627Z,8.13
2023-02-24T15:47:59.130Z,8.02
2023-02-24T15:50:26.126Z,8.07
2023-02-24T15:52:52.790Z,6.97
2023-02-24T15:55:20.608Z,7.70
2023-02-24T15:57:48.463Z,7.45
2023-02-24T16:00:17.495Z,8.45
2023-02-24T16:02:44.324Z,7.95
2023-02-24T16:05:14.461Z,7.78
2023-02-24T16:07:44.063Z,7.30
2023-02-24T16:10:22.379Z,7.20
2023-02-24T16:15:26.568Z,6.43
2023-02-24T16:17:53.811Z,6.78
2023-02-24T16:20:31.309Z,6.15
2023-02-24T16:22:59.392Z,6.65
2023-02-24T16:25:26.734Z,6.88
2023-02-24T16:27:57.238Z,7.60
2023-02-24T16:30:26.363Z,6.80
2023-02-24T16:32:53.467Z,7.05
2023-02-24T16:35:20.277Z,7.80
2023-02-24T16:37:48.095Z,6.07
2023-02-24T16:40:20.736Z,7.13
2023-02-24T16:42:48.530Z,7.05
2023-02-24T16:45:15.138Z,7.15
2023-02-24T16:47:42.394Z,8.55
2023-02-24T16:50:21.561Z,8.80
2023-02-24T16:52:48.263Z,9.05
2023-02-24T16:55:15.353Z,8.38
2023-02-24T16:57:41.969Z,8.75
2023-02-24T17:00:10.177Z,7.47
2023-02-24T17:02:36.999Z,7.25
2023-02-24T17:05:03.748Z,5.97
2023-02-24T17:07:30.350Z,4.18
2023-02-24T17:09:56.906Z,4.57
2023-02-24T17:12:23.478Z,3.38
2023-02-24T17:14:50.145Z,3.28
2023-02-24T17:17:16.749Z,2.90
2023-02-24T17:19:43.370Z,2.42
2023-02-24T17:22:10.308Z,1.80
2023-02-24T17:24:36.851Z,1.55
2023-02-24T17:27:04.409Z,1.25
2023-02-24T17:29:31.014Z,1.70
2023-02-24T17:31:57.776Z,2.95
2023-02-24T17:34:24.551Z,1.30
2023-02-24T17:36:51.222Z,1.55
2023-02-24T17:39:17.812Z,1.27
2023-02-24T17:41:44.786Z,1.58
2023-02-24T17:44:11.351Z,2.05
2023-02-24T17:46:38.026Z,1.48
2023-02-24T17:49:05.150Z,1.50
2023-02-24T17:51:32.125Z,1.77
2023-02-24T17:53:58.768Z,1.13
2023-02-24T17:56:25.469Z,1.30
2023-02-24T17:58:55.401Z,1.83
2023-02-24T18:01:22.171Z,1.58
2023-02-24T18:03:48.887Z,1.38
2023-02-24T18:06:15.479Z,1.63
2023-02-24T18:08:42.203Z,2.10
2023-02-24T18:11:13.194Z,1.67
2023-02-24T18:13:39.772Z,2.72
2023-02-24T18:16:11.350Z,2.35
2023-02-24T18:18:38.287Z,2.35
2023-02-24T18:21:06.712Z,1.60
2023-02-24T18:26:04.228Z,2.88
2023-02-24T18:28:31.627Z,1.80
2023-02-24T18:30:58.710Z,2.78
2023-02-24T18:33:25.554Z,2.00
2023-02-24T18:36:01.977Z,1.55
2023-02-24T18:38:29.317Z,1.58
2023-02-24T18:41:04.790Z,1.55
2023-02-24T18:43:32.078Z,1.58
2023-02-24T18:46:00.904Z,2.28
2023-02-24T18:48:28.641Z,1.52
2023-02-24T18:50:56.303Z,2.25
2023-02-24T18:53:23.845Z,2.25
2023-02-24T18:55:50.711Z,1.67
2023-02-24T18:58:17.417Z,1.70
2023-02-24T19:00:45.311Z,1.90
2023-02-24T19:03:12.254Z,2.10
2023-02-24T19:05:39.198Z,2.38
2023-02-24T19:08:06.069Z,2.85
2023-02-24T19:10:32.744Z,2.10
2023-02-24T19:12:59.330Z,2.35
2023-02-24T19:15:27.748Z,2.58
2023-02-24T19:20:21.092Z,2.70
2023-02-24T19:22:50.455Z,2.45
2023-02-24T19:25:18.165Z,2.80
2023-02-24T19:27:44.884Z,2.28
2023-02-24T19:30:11.741Z,2.33
2023-02-24T19:32:38.546Z,2.35
2023-02-24T19:35:05.700Z,2.50
2023-02-24T19:37:32.967Z,2.45
2023-02-24T19:39:59.676Z,2.83
2023-02-24T19:42:26.717Z,2.25
2023-02-24T19:44:53.290Z,1.90
2023-02-24T19:47:19.905Z,2.80
2023-02-24T19:49:46.467Z,2.00
2023-02-24T19:52:13.047Z,2.58
2023-02-24T19:54:39.606Z,2.45
2023-02-24T19:57:06.529Z,2.53
2023-02-24T19:59:33.726Z,2.05
2023-02-24T20:02:01.145Z,2.70
2023-02-24T20:04:27.797Z,2.42
2023-02-24T20:06:54.477Z,2.30
2023-02-24T20:09:21.439Z,2.30
2023-02-24T20:11:49.642Z,2.90
2023-02-24T20:14:18.671Z,2.47
2023-02-24T20:16:45.962Z,2.35
2023-02-24T20:19:13.786Z,2.80
2023-02-24T20:21:40.898Z,3.60
2023-02-24T20:24:13.413Z,3.22
2023-02-24T20:26:42.184Z,2.17
2023-02-24T20:31:36.224Z,2.92
2023-02-24T20:34:04.916Z,3.47
2023-02-24T20:36:31.946Z,2.75
2023-02-24T20:38:59.367Z,2.45
2023-02-24T20:41:27.101Z,2.95
2023-02-24T20:43:54.746Z,2.58
2023-02-24T20:46:24.435Z,2.75
2023-02-24T20:48:53.000Z,2.83
2023-02-24T20:51:19.642Z,2.97
2023-02-24T20:53:56.656Z,2.65
2023-02-24T20:56:24.943Z,2.40
2023-02-24T20:58:53.474Z,2.70
2023-02-24T21:03:47.616Z,3.17
2023-02-24T21:06:15.629Z,2.15
2023-02-24T21:08:43.669Z,2.80
2023-02-24T21:11:11.242Z,2.55
2023-02-24T21:13:46.223Z,3.05
2023-02-24T21:16:15.623Z,3.03
2023-02-24T21:18:43.868Z,2.53
2023-02-24T21:21:11.575Z,3.85
2023-02-24T21:23:38.834Z,3.10
2023-02-24T21:26:06.295Z,2.65
2023-02-24T21:28:33.195Z,3.03
2023-02-24T21:31:00.332Z,3.42
2023-02-24T21:33:27.599Z,2.75
2023-02-24T21:36:11.737Z,2.30
2023-02-24T21:38:38.300Z,2.63
2023-02-24T21:41:07.330Z,3.15
2023-02-24T21:43:34.221Z,2.88
2023-02-24T21:46:02.727Z,2.83
2023-02-24T21:48:29.352Z,2.65
2023-02-24T21:51:04.068Z,3.03
2023-02-24T21:53:35.667Z,2.60
2023-02-24T21:56:24.107Z,3.42
2023-02-24T21:59:02.022Z,3.47
2023-02-24T22:01:35.022Z,2.72
2023-02-24T22:04:04.205Z,2.63
2023-02-24T22:06:33.206Z,3.20
2023-02-24T22:09:01.298Z,2.90
2023-02-24T22:11:30.919Z,3.15
2023-02-24T22:13:57.952Z,3.05
2023-02-24T22:16:26.137Z,3.40
2023-02-24T22:21:21.705Z,2.95
2023-02-24T22:23:50.936Z,3.33
2023-02-24T22:26:18.565Z,2.80
2023-02-24T22:28:46.963Z,2.72
2023-02-24T22:33:42.585Z,2.43
2023-02-24T22:36:18.338Z,3.03
2023-02-24T22:38:47.773Z,2.88
2023-02-24T22:41:17.320Z,3.40
2023-02-24T22:43:43.947Z,2.75
2023-02-24T22:46:18.435Z,2.63
2023-02-24T22:48:45.077Z,2.38
2023-02-24T22:51:12.920Z,3.00
2023-02-24T22:53:42.573Z,2.42
2023-02-24T22:56:11.771Z,2.55
2023-02-24T22:58:38.612Z,2.97
2023-02-24T23:01:12.683Z,2.60
2023-02-24T23:03:40.968Z,2.75
2023-02-24T23:06:09.906Z,2.38
2023-02-24T23:08:38.254Z,2.40
2023-02-24T23:11:13.517Z,3.35
2023-02-24T23:13:41.089Z,2.45
2023-02-24T23:16:09.654Z,2.47
2023-02-24T23:18:36.949Z,1.92
2023-02-24T23:21:06.352Z,2.88
2023-02-24T23:23:32.979Z,2.35
2023-02-24T23:25:59.641Z,2.13
2023-02-24T23:28:27.432Z,2.33
2023-02-24T23:30:55.060Z,2.97
2023-02-24T23:33:22.572Z,3.47
2023-02-24T23:35:49.906Z,3.30
2023-02-24T23:38:16.618Z,2.65
2023-02-24T23:40:49.997Z,2.90
2023-02-24T23:43:17.408Z,2.30
2023-02-24T23:45:44.400Z,3.35
2023-02-24T23:48:13.055Z,3.08
2023-02-24T23:50:41.521Z,3.08
2023-02-24T23:55:35.702Z,2.77
2023-02-24T23:58:03.575Z,2.90
